Time;durP1;ratioP1;P1;durP2;ratioP2;P2;SDS_P1;SDS_P2;PMS_P1;PMS_P2;Temp;Humidity;BMP_temperature;BMP_pressure;BME280_temperature;BME280_humidity;BME280_pressure;Samples;Min_cycle;Max_cycle;Signal;HPM_P1;HPM_P2
2022/11/18 00:03:02;;;;;;;;;;;17.30;74.80;;;;;;10343102;28;19938;-63
2022/11/18 00:08:04;;;;;;;;;;;17.20;74.60;;;;;;10343712;28;19940;-64
2022/11/18 00:18:26;;;;;;;;;;;17.20;74.50;;;;;;10342896;28;20024;-63
2022/11/18 00:23:28;;;;;;;;;;;17.20;74.50;;;;;;10342846;28;19973;-64
2022/11/18 00:28:30;;;;;;;;;;;17.20;74.60;;;;;;10343013;28;19933;-63
2022/11/18 00:33:32;;;;;;;;;;;17.10;74.40;;;;;;10341176;28;19985;-64
2022/11/18 00:38:34;;;;;;;;;;;17.20;74.50;;;;;;10342627;28;20521;-64
2022/11/18 00:43:35;;;;;;;;;;;17.10;74.40;;;;;;10341805;28;20994;-64
2022/11/18 00:48:38;;;;;;;;;;;17.10;74.50;;;;;;10342502;28;20017;-63
2022/11/18 00:53:39;;;;;;;;;;;17.10;74.40;;;;;;10342187;28;20318;-64
2022/11/18 00:58:41;;;;;;;;;;;17.10;74.30;;;;;;10342604;28;19981;-63
2022/11/18 01:03:43;;;;;;;;;;;17.10;74.30;;;;;;10340524;28;20024;-64
2022/11/18 01:08:45;;;;;;;;;;;17.10;74.40;;;;;;10342604;28;19934;-64
2022/11/18 01:13:51;;;;;;;;;;;17.10;74.40;;;;;;10341721;28;19997;-64
2022/11/18 01:18:53;;;;;;;;;;;17.10;74.20;;;;;;10339749;28;20452;-63
2022/11/18 01:23:54;;;;;;;;;;;17.10;74.30;;;;;;10341479;28;19965;-63
2022/11/18 01:28:56;;;;;;;;;;;17.10;74.20;;;;;;10341758;28;19993;-64
2022/11/18 01:33:58;;;;;;;;;;;17.10;74.20;;;;;;10339370;28;19981;-62
2022/11/18 01:39:00;;;;;;;;;;;17.10;74.20;;;;;;10339875;28;19934;-63
2022/11/18 01:44:03;;;;;;;;;;;17.00;74.10;;;;;;10340936;28;19934;-63
2022/11/18 01:49:06;;;;;;;;;;;17.00;74.20;;;;;;10346832;28;19973;-63
2022/11/18 01:54:11;;;;;;;;;;;17.00;74.10;;;;;;10347886;28;19941;-62
2022/11/18 01:59:16;;;;;;;;;;;17.00;74.10;;;;;;10347364;28;19969;-64
2022/11/18 02:04:19;;;;;;;;;;;17.00;74.10;;;;;;10779329;22;19977;-72
2022/11/18 02:09:21;;;;;;;;;;;16.90;74.00;;;;;;10390541;28;20028;-72
2022/11/18 02:14:23;;;;;;;;;;;17.00;74.10;;;;;;10389897;28;20478;-72
2022/11/18 02:19:37;;;;;;;;;;;17.00;74.00;;;;;;10388822;28;20024;-71
2022/11/18 02:24:57;;;;;;;;;;;16.90;74.00;;;;;;10389110;28;20179;-71
2022/11/18 02:30:09;;;;;;;;;;;16.90;74.10;;;;;;10388936;28;20012;-71
2022/11/18 02:35:13;;;;;;;;;;;16.90;74.10;;;;;;10388692;28;19935;-71
2022/11/18 02:40:20;;;;;;;;;;;16.90;74.00;;;;;;10387236;28;20023;-71
2022/11/18 02:45:23;;;;;;;;;;;16.90;74.10;;;;;;10387985;28;19980;-71
2022/11/18 02:50:26;;;;;;;;;;;16.90;74.10;;;;;;10402453;28;19934;-71
2022/11/18 02:55:29;;;;;;;;;;;16.90;74.00;;;;;;10402351;28;20018;-71
2022/11/18 03:00:31;;;;;;;;;;;16.90;74.10;;;;;;10387117;28;20396;-71
2022/11/18 03:05:47;;;;;;;;;;;16.90;74.10;;;;;;10386729;28;19938;-71
2022/11/18 03:10:53;;;;;;;;;;;16.80;73.80;;;;;;10387296;28;19941;-72
2022/11/18 03:16:01;;;;;;;;;;;16.90;73.90;;;;;;10387830;28;20041;-71
2022/11/18 03:21:08;;;;;;;;;;;16.90;73.90;;;;;;10386987;28;19934;-71
2022/11/18 03:26:12;;;;;;;;;;;16.90;73.80;;;;;;10386675;28;19934;-73
2022/11/18 03:31:17;;;;;;;;;;;16.90;73.80;;;;;;10385707;28;20400;-72
2022/11/18 03:36:21;;;;;;;;;;;16.90;73.90;;;;;;10385355;28;20016;-71
2022/11/18 03:41:25;;;;;;;;;;;16.80;73.70;;;;;;10387715;28;19934;-71
2022/11/18 03:46:29;;;;;;;;;;;16.90;73.80;;;;;;10386747;28;20020;-72
2022/11/18 03:51:34;;;;;;;;;;;16.80;73.70;;;;;;10386770;28;20028;-72
2022/11/18 03:56:42;;;;;;;;;;;16.80;73.70;;;;;;10385340;28;19941;-71
2022/11/18 04:02:00;;;;;;;;;;;16.80;73.70;;;;;;10384779;28;19965;-72
2022/11/18 04:07:10;;;;;;;;;;;16.80;73.60;;;;;;10384677;28;20024;-72
2022/11/18 04:12:14;;;;;;;;;;;16.80;73.60;;;;;;10384645;28;19940;-72
2022/11/18 04:17:16;;;;;;;;;;;16.80;73.70;;;;;;10385733;28;20032;-72
2022/11/18 04:22:19;;;;;;;;;;;16.70;73.60;;;;;;10400005;28;20021;-72
2022/11/18 04:27:20;;;;;;;;;;;16.70;73.60;;;;;;10385668;28;19934;-72
2022/11/18 04:32:22;;;;;;;;;;;16.70;73.60;;;;;;10384764;28;19934;-73
2022/11/18 04:37:24;;;;;;;;;;;16.70;73.60;;;;;;10385102;28;20059;-72
2022/11/18 04:42:26;;;;;;;;;;;16.70;73.60;;;;;;10384428;28;19977;-72
2022/11/18 04:47:28;;;;;;;;;;;16.70;73.50;;;;;;10384629;28;20061;-74
2022/11/18 04:52:29;;;;;;;;;;;16.70;73.50;;;;;;10382807;28;19941;-72
2022/11/18 04:57:31;;;;;;;;;;;16.70;73.70;;;;;;10383581;28;20821;-72
2022/11/18 05:02:33;;;;;;;;;;;16.70;73.50;;;;;;10383150;28;20069;-72
2022/11/18 05:07:35;;;;;;;;;;;16.70;73.50;;;;;;10384368;28;19981;-73
2022/11/18 05:12:49;;;;;;;;;;;16.70;73.50;;;;;;10384899;28;19989;-72
2022/11/18 05:17:50;;;;;;;;;;;16.70;73.50;;;;;;10384004;28;19973;-72
2022/11/18 05:22:52;;;;;;;;;;;16.70;73.50;;;;;;10383023;28;20011;-72
2022/11/18 05:27:54;;;;;;;;;;;16.70;73.30;;;;;;10383138;28;20005;-72
2022/11/18 05:32:56;;;;;;;;;;;16.70;73.30;;;;;;10381426;28;19977;-72
2022/11/18 05:38:00;;;;;;;;;;;16.70;73.30;;;;;;10383988;28;20706;-72
2022/11/18 05:43:10;;;;;;;;;;;16.70;73.10;;;;;;10383246;28;20028;-72
2022/11/18 05:48:12;;;;;;;;;;;16.80;73.20;;;;;;10382602;28;19934;-72
2022/11/18 05:53:15;;;;;;;;;;;17.00;73.00;;;;;;10382554;28;19941;-72
2022/11/18 05:58:16;;;;;;;;;;;17.10;72.70;;;;;;10382338;28;19977;-71
2022/11/18 06:03:21;;;;;;;;;;;17.20;72.40;;;;;;10382713;28;20082;-71
2022/11/18 06:08:33;;;;;;;;;;;17.20;72.20;;;;;;10381413;28;20356;-72
2022/11/18 06:13:38;;;;;;;;;;;17.20;72.10;;;;;;10383891;28;19934;-72
2022/11/18 06:18:40;;;;;;;;;;;17.20;72.10;;;;;;10384746;28;20053;-72
2022/11/18 06:23:42;;;;;;;;;;;17.20;72.20;;;;;;10402971;28;20392;-72
2022/11/18 06:28:45;;;;;;;;;;;17.20;72.30;;;;;;10385145;28;20559;-72
2022/11/18 06:33:47;;;;;;;;;;;17.20;72.30;;;;;;10389746;28;19934;-72
2022/11/18 06:38:54;;;;;;;;;;;17.10;72.30;;;;;;10389010;28;19934;-71
2022/11/18 06:43:56;;;;;;;;;;;17.10;72.50;;;;;;10404460;28;20028;-71
2022/11/18 06:48:57;;;;;;;;;;;17.10;72.60;;;;;;10387588;28;19940;-71
2022/11/18 06:53:59;;;;;;;;;;;17.00;72.80;;;;;;10386797;28;19969;-72
2022/11/18 06:59:08;;;;;;;;;;;17.10;72.90;;;;;;10386331;28;20447;-72
2022/11/18 07:04:09;;;;;;;;;;;17.00;73.70;;;;;;10387396;28;19934;-71
2022/11/18 07:09:11;;;;;;;;;;;17.00;73.80;;;;;;10385370;28;19938;-72
2022/11/18 07:14:13;;;;;;;;;;;17.00;74.20;;;;;;10384633;28;19944;-72
2022/11/18 07:19:14;;;;;;;;;;;17.00;74.20;;;;;;10385723;28;19962;-70
2022/11/18 07:24:17;;;;;;;;;;;17.10;74.30;;;;;;10386133;28;19933;-71
2022/11/18 07:29:19;;;;;;;;;;;17.10;74.00;;;;;;10385782;28;19941;-68
2022/11/18 07:34:21;;;;;;;;;;;17.00;73.90;;;;;;10385796;28;19937;-68
2022/11/18 07:39:22;;;;;;;;;;;17.00;74.10;;;;;;10386307;28;20020;-68
2022/11/18 07:44:24;;;;;;;;;;;17.00;74.00;;;;;;10385599;28;19934;-70
2022/11/18 07:49:26;;;;;;;;;;;16.90;73.90;;;;;;10385152;28;20024;-71
2022/11/18 07:54:28;;;;;;;;;;;16.90;74.00;;;;;;10385318;28;20025;-70
2022/11/18 07:59:29;;;;;;;;;;;16.90;74.10;;;;;;10385186;28;20429;-70
2022/11/18 08:04:31;;;;;;;;;;;16.80;74.10;;;;;;10383638;28;20089;-70
2022/11/18 08:09:33;;;;;;;;;;;16.90;74.10;;;;;;10385620;28;20013;-71
2022/11/18 08:14:35;;;;;;;;;;;17.10;73.90;;;;;;10385133;28;20033;-71
2022/11/18 08:19:37;;;;;;;;;;;17.20;73.60;;;;;;10385205;28;19934;-71
2022/11/18 08:24:38;;;;;;;;;;;17.30;73.30;;;;;;10385160;28;19934;-70
2022/11/18 08:29:40;;;;;;;;;;;17.30;73.10;;;;;;10383996;28;20020;-69
2022/11/18 08:34:42;;;;;;;;;;;17.30;73.00;;;;;;10384694;28;20020;-70
2022/11/18 08:39:43;;;;;;;;;;;17.30;72.90;;;;;;10384432;28;19934;-70
2022/11/18 08:44:45;;;;;;;;;;;17.30;72.90;;;;;;10384867;28;19963;-70
2022/11/18 08:49:47;;;;;;;;;;;17.30;72.90;;;;;;10384286;28;19984;-72
2022/11/18 08:54:51;;;;;;;;;;;17.20;72.90;;;;;;10383757;28;27192;-71
2022/11/18 08:59:52;;;;;;;;;;;17.20;73.10;;;;;;10385368;28;19934;-72
2022/11/18 09:04:54;;;;;;;;;;;17.20;73.30;;;;;;10384862;28;19934;-71
2022/11/18 09:09:56;;;;;;;;;;;17.20;73.50;;;;;;10384723;28;19980;-71
2022/11/18 09:14:57;;;;;;;;;;;17.20;73.50;;;;;;10383073;28;19984;-71
2022/11/18 09:20:16;;;;;;;;;;;17.10;73.40;;;;;;10383615;28;19940;-70
2022/11/18 09:25:17;;;;;;;;;;;17.10;74.60;;;;;;10382460;28;19940;-72
2022/11/18 09:30:19;;;;;;;;;;;17.10;73.60;;;;;;10383933;28;20586;-71
2022/11/18 09:35:21;;;;;;;;;;;17.00;73.70;;;;;;10382872;28;20403;-71
2022/11/18 09:40:23;;;;;;;;;;;17.10;73.70;;;;;;10382476;28;20877;-72
2022/11/18 09:45:29;;;;;;;;;;;17.00;73.70;;;;;;10382212;28;20012;-72
2022/11/18 09:50:30;;;;;;;;;;;17.00;73.80;;;;;;10382221;28;20012;-72
2022/11/18 09:55:51;;;;;;;;;;;17.00;73.80;;;;;;10382284;28;19933;-72
2022/11/18 10:00:53;;;;;;;;;;;17.00;73.80;;;;;;10382036;28;19961;-72
2022/11/18 10:06:08;;;;;;;;;;;17.00;74.00;;;;;;10381684;28;20379;-72
2022/11/18 10:11:16;;;;;;;;;;;17.00;74.00;;;;;;10389744;28;19934;-72
2022/11/18 10:16:21;;;;;;;;;;;17.00;74.00;;;;;;10388150;28;19984;-72
2022/11/18 10:21:29;;;;;;;;;;;17.00;74.00;;;;;;10389430;28;19940;-71
2022/11/18 10:26:35;;;;;;;;;;;17.00;74.00;;;;;;10390209;28;19934;-71
2022/11/18 10:31:37;;;;;;;;;;;17.00;73.90;;;;;;10389930;28;20439;-73
2022/11/18 10:36:56;;;;;;;;;;;16.90;74.10;;;;;;10389653;28;19980;-72
2022/11/18 10:42:02;;;;;;;;;;;17.00;74.20;;;;;;10389432;28;19973;-73
2022/11/18 10:47:15;;;;;;;;;;;17.10;74.30;;;;;;10388094;28;20404;-72
2022/11/18 10:52:17;;;;;;;;;;;17.30;74.30;;;;;;10387811;28;19965;-70
2022/11/18 10:57:23;;;;;;;;;;;17.60;73.70;;;;;;10387125;28;19934;-72
2022/11/18 11:02:24;;;;;;;;;;;17.80;73.20;;;;;;10386189;28;19997;-71
2022/11/18 11:07:33;;;;;;;;;;;18.00;72.70;;;;;;10386735;28;19934;-71
2022/11/18 11:12:46;;;;;;;;;;;18.10;72.40;;;;;;10387545;28;19934;-72
2022/11/18 11:18:40;;;;;;;;;;;18.10;72.20;;;;;;10385994;28;20558;-71
2022/11/18 11:23:14;;;;;;;;;;;18.10;72.20;;;;;;10387233;28;19934;-71
2022/11/18 11:28:42;;;;;;;;;;;18.00;72.30;;;;;;10388764;28;19961;-71
2022/11/18 11:33:53;;;;;;;;;;;18.00;72.40;;;;;;10388148;28;20353;-71
2022/11/18 11:39:13;;;;;;;;;;;17.90;72.50;;;;;;10389112;28;19981;-71
2022/11/18 11:44:18;;;;;;;;;;;17.80;72.60;;;;;;10386395;28;20024;-72
2022/11/18 11:49:28;;;;;;;;;;;17.80;72.70;;;;;;10384637;28;20482;-71
2022/11/18 11:54:48;;;;;;;;;;;17.90;72.70;;;;;;10386327;28;19985;-71
2022/11/18 12:00:00;;;;;;;;;;;17.80;72.70;;;;;;10385167;28;20024;-71
2022/11/18 12:05:22;;;;;;;;;;;17.80;72.70;;;;;;10385454;28;20369;-72
2022/11/18 12:10:27;;;;;;;;;;;17.80;72.90;;;;;;10374717;28;19934;-72
2022/11/18 12:15:29;;;;;;;;;;;17.90;72.80;;;;;;10384263;28;20383;-71
2022/11/18 12:20:34;;;;;;;;;;;17.90;72.70;;;;;;10382745;28;19956;-70
2022/11/18 12:25:54;;;;;;;;;;;17.90;72.60;;;;;;10384610;28;20024;-71
2022/11/18 12:31:14;;;;;;;;;;;17.90;72.70;;;;;;10382624;28;20040;-72
2022/11/18 12:36:25;;;;;;;;;;;18.00;72.70;;;;;;10386023;28;20036;-71
2022/11/18 12:47:03;;;;;;;;;;;18.10;72.30;;;;;;10384556;28;20053;-72
2022/11/18 12:52:24;;;;;;;;;;;18.20;72.10;;;;;;10384729;28;19934;-72
2022/11/18 12:57:33;;;;;;;;;;;18.20;72.10;;;;;;10383521;28;20016;-72
2022/11/18 13:02:34;;;;;;;;;;;18.20;72.00;;;;;;10381540;28;20032;-72
2022/11/18 13:13:12;;;;;;;;;;;18.20;71.80;;;;;;10384380;28;19969;-73
2022/11/18 13:18:15;;;;;;;;;;;18.30;71.90;;;;;;10383824;28;20368;-73
2022/11/18 13:29:10;;;;;;;;;;;18.20;71.80;;;;;;10383333;28;20028;-71
2022/11/18 13:34:24;;;;;;;;;;;18.30;71.70;;;;;;10380491;28;19937;-70
2022/11/18 13:39:27;;;;;;;;;;;18.30;72.10;;;;;;10381506;28;20311;-71
2022/11/18 13:44:30;;;;;;;;;;;18.30;74.10;;;;;;10395414;28;19972;-70
2022/11/18 13:49:38;;;;;;;;;;;18.30;72.90;;;;;;10396755;28;20267;-70
2022/11/18 13:54:40;;;;;;;;;;;18.40;72.90;;;;;;10394912;28;19940;-69
2022/11/18 13:59:42;;;;;;;;;;;18.50;72.70;;;;;;10395994;28;20021;-72
2022/11/18 14:04:49;;;;;;;;;;;18.50;72.60;;;;;;10396022;28;20513;-71
2022/11/18 14:09:52;;;;;;;;;;;18.50;72.60;;;;;;10396952;28;20016;-72
2022/11/18 14:15:11;;;;;;;;;;;18.50;72.30;;;;;;10394803;28;20032;-72
2022/11/18 14:20:15;;;;;;;;;;;18.50;72.30;;;;;;10395986;28;20091;-72
2022/11/18 14:25:30;;;;;;;;;;;18.60;72.30;;;;;;10394109;28;20024;-72
2022/11/18 14:30:34;;;;;;;;;;;18.50;72.10;;;;;;10394408;28;19941;-72
2022/11/18 14:35:36;;;;;;;;;;;18.50;72.10;;;;;;10395645;28;19934;-71
2022/11/18 14:40:38;;;;;;;;;;;18.40;72.20;;;;;;10393648;28;20044;-71
2022/11/18 14:45:40;;;;;;;;;;;18.40;72.30;;;;;;10394582;28;20068;-71
2022/11/18 14:50:42;;;;;;;;;;;18.40;72.40;;;;;;10394981;28;20024;-71
2022/11/18 14:55:46;;;;;;;;;;;18.40;72.40;;;;;;10387885;28;20016;-71
2022/11/18 15:00:48;;;;;;;;;;;18.30;72.30;;;;;;10388443;28;19976;-69
2022/11/18 15:05:50;;;;;;;;;;;18.30;72.20;;;;;;10385975;28;20750;-70
2022/11/18 15:10:52;;;;;;;;;;;18.30;72.30;;;;;;10386559;28;19992;-70
2022/11/18 15:15:54;;;;;;;;;;;18.30;72.50;;;;;;10385175;28;19940;-70
2022/11/18 15:20:56;;;;;;;;;;;18.30;72.30;;;;;;10386791;28;20025;-70
2022/11/18 15:25:57;;;;;;;;;;;18.30;72.40;;;;;;10387758;28;20025;-70
2022/11/18 15:30:59;;;;;;;;;;;18.30;72.40;;;;;;10386201;28;20167;-70
2022/11/18 15:36:01;;;;;;;;;;;18.30;72.50;;;;;;10385325;28;20016;-70
2022/11/18 15:41:02;;;;;;;;;;;18.30;72.60;;;;;;10383301;28;20028;-70
2022/11/18 15:46:04;;;;;;;;;;;18.30;72.30;;;;;;10385751;28;20024;-70
2022/11/18 15:51:06;;;;;;;;;;;18.40;72.50;;;;;;10385467;28;20755;-69
2022/11/18 15:56:19;;;;;;;;;;;18.30;72.60;;;;;;10383689;28;20415;-71
2022/11/18 16:01:21;;;;;;;;;;;18.40;72.80;;;;;;10382548;28;19934;-70
2022/11/18 16:06:23;;;;;;;;;;;18.40;72.60;;;;;;10384036;28;20017;-73
2022/11/18 16:16:46;;;;;;;;;;;18.50;72.70;;;;;;10384393;28;19973;-71
2022/11/18 16:21:54;;;;;;;;;;;18.60;72.40;;;;;;10383372;28;19941;-70
2022/11/18 16:26:56;;;;;;;;;;;18.80;72.10;;;;;;10382833;28;19934;-70
2022/11/18 16:31:58;;;;;;;;;;;18.80;71.80;;;;;;10381698;28;20573;-71
2022/11/18 16:37:00;;;;;;;;;;;18.80;71.60;;;;;;10384114;28;19934;-70
2022/11/18 16:42:01;;;;;;;;;;;18.60;71.50;;;;;;10397735;28;20305;-69
2022/11/18 16:47:10;;;;;;;;;;;18.60;71.70;;;;;;10380593;28;20424;-70
2022/11/18 16:52:15;;;;;;;;;;;18.60;71.80;;;;;;10382889;28;19941;-70
2022/11/18 16:57:17;;;;;;;;;;;18.60;71.90;;;;;;10382408;28;19969;-70
2022/11/18 17:02:19;;;;;;;;;;;18.60;72.00;;;;;;10381893;28;19934;-71
2022/11/18 17:07:21;;;;;;;;;;;18.60;72.60;;;;;;10382235;28;20404;-72
2022/11/18 17:12:23;;;;;;;;;;;18.60;72.70;;;;;;10381604;28;19934;-69
2022/11/18 17:17:24;;;;;;;;;;;18.80;73.10;;;;;;10380266;28;20057;-69
2022/11/18 17:22:26;;;;;;;;;;;19.10;71.30;;;;;;10380270;28;19933;-70
2022/11/18 17:27:30;;;;;;;;;;;19.10;71.10;;;;;;10382649;28;19967;-70
2022/11/18 17:32:32;;;;;;;;;;;19.20;72.00;;;;;;10381176;28;20024;-70
2022/11/18 17:37:34;;;;;;;;;;;19.40;72.30;;;;;;10380663;28;19938;-70
2022/11/18 17:42:35;;;;;;;;;;;19.50;71.30;;;;;;10380264;28;19973;-70
2022/11/18 17:47:37;;;;;;;;;;;19.40;71.30;;;;;;10380495;28;19976;-70
2022/11/18 17:52:39;;;;;;;;;;;19.30;71.50;;;;;;10381821;28;20379;-70
2022/11/18 17:57:40;;;;;;;;;;;19.20;71.80;;;;;;10382086;28;20467;-70
2022/11/18 18:02:42;;;;;;;;;;;19.00;72.90;;;;;;10380536;28;19973;-70
2022/11/18 18:07:47;;;;;;;;;;;19.00;72.30;;;;;;10380852;28;20359;-70
2022/11/18 18:18:10;;;;;;;;;;;18.80;72.50;;;;;;10380676;28;20040;-70
2022/11/18 18:23:14;;;;;;;;;;;18.80;72.70;;;;;;10378978;28;20479;-70
2022/11/18 18:28:16;;;;;;;;;;;18.60;72.60;;;;;;10382784;28;19977;-70
2022/11/18 18:33:17;;;;;;;;;;;18.60;72.80;;;;;;10386805;28;20011;-70
2022/11/18 18:38:19;;;;;;;;;;;18.60;73.10;;;;;;10386664;28;20052;-69
2022/11/18 18:43:21;;;;;;;;;;;18.60;73.10;;;;;;10386535;28;20476;-70
2022/11/18 18:48:23;;;;;;;;;;;18.70;73.00;;;;;;10386540;28;19934;-70
2022/11/18 18:53:24;;;;;;;;;;;18.70;72.60;;;;;;10386655;28;19940;-70
2022/11/18 18:58:27;;;;;;;;;;;18.70;72.40;;;;;;10386416;28;20020;-69
2022/11/18 19:03:29;;;;;;;;;;;18.70;72.40;;;;;;10385452;28;19935;-72
2022/11/18 19:08:31;;;;;;;;;;;18.60;72.30;;;;;;10384866;28;19934;-69
2022/11/18 19:13:33;;;;;;;;;;;18.60;72.40;;;;;;10386884;28;20498;-70
2022/11/18 19:18:35;;;;;;;;;;;18.70;72.30;;;;;;10386350;28;20028;-70
2022/11/18 19:23:37;;;;;;;;;;;18.90;71.90;;;;;;10386627;28;19969;-71
2022/11/18 19:28:38;;;;;;;;;;;19.00;71.50;;;;;;10386489;28;19941;-70
2022/11/18 19:33:40;;;;;;;;;;;19.10;71.20;;;;;;10385679;28;20025;-70
2022/11/18 19:38:42;;;;;;;;;;;19.10;71.20;;;;;;10384295;28;19961;-69
2022/11/18 19:43:44;;;;;;;;;;;19.10;72.10;;;;;;10383495;28;19934;-69
2022/11/18 19:48:46;;;;;;;;;;;19.10;71.60;;;;;;10385486;28;19933;-70
2022/11/18 19:53:48;;;;;;;;;;;19.10;71.40;;;;;;10384649;28;19969;-70
2022/11/18 19:58:51;;;;;;;;;;;19.10;71.30;;;;;;10366828;28;20017;-70
2022/11/18 20:03:57;;;;;;;;;;;19.10;71.30;;;;;;10382059;28;20571;-69
2022/11/18 20:08:58;;;;;;;;;;;19.10;71.40;;;;;;10383568;28;21333;-70
2022/11/18 20:14:00;;;;;;;;;;;19.00;71.40;;;;;;10383642;28;19933;-70
2022/11/18 20:19:03;;;;;;;;;;;19.00;71.60;;;;;;10383222;28;19956;-70
2022/11/18 20:24:19;;;;;;;;;;;18.90;71.60;;;;;;10383670;28;20296;-70
2022/11/18 20:29:20;;;;;;;;;;;18.80;71.70;;;;;;10383380;28;19965;-70
2022/11/18 20:34:23;;;;;;;;;;;18.70;71.80;;;;;;10381478;28;20028;-71
2022/11/18 20:39:25;;;;;;;;;;;18.60;71.90;;;;;;10382184;28;19940;-71
2022/11/18 20:44:26;;;;;;;;;;;18.60;72.00;;;;;;10382472;28;19934;-71
2022/11/18 20:49:28;;;;;;;;;;;18.50;72.30;;;;;;10381627;28;19988;-71
2022/11/18 20:54:30;;;;;;;;;;;18.50;72.30;;;;;;10379970;28;20032;-70
2022/11/18 20:59:32;;;;;;;;;;;18.50;72.40;;;;;;10381916;28;20451;-69
2022/11/18 21:04:33;;;;;;;;;;;18.40;72.50;;;;;;10381480;28;19973;-70
2022/11/18 21:09:35;;;;;;;;;;;18.30;72.50;;;;;;10382384;28;19940;-69
2022/11/18 21:14:37;;;;;;;;;;;18.30;72.60;;;;;;10382505;28;20095;-69
2022/11/18 21:19:39;;;;;;;;;;;18.20;72.60;;;;;;10381344;28;19934;-70
2022/11/18 21:24:46;;;;;;;;;;;18.20;72.70;;;;;;10381203;28;19937;-70
2022/11/18 21:29:48;;;;;;;;;;;18.20;72.80;;;;;;10378108;28;20917;-70
2022/11/18 21:34:50;;;;;;;;;;;18.10;72.80;;;;;;10379447;28;20039;-70
2022/11/18 21:39:52;;;;;;;;;;;18.00;72.80;;;;;;10380345;28;19934;-70
2022/11/18 21:44:53;;;;;;;;;;;18.00;72.90;;;;;;10380818;28;19934;-70
2022/11/18 21:49:55;;;;;;;;;;;18.00;72.90;;;;;;10380928;28;19996;-69
2022/11/18 21:54:57;;;;;;;;;;;18.00;73.00;;;;;;10380526;28;19937;-70
2022/11/18 21:59:59;;;;;;;;;;;18.00;72.90;;;;;;10378754;28;20032;-70
2022/11/18 22:05:05;;;;;;;;;;;17.90;72.80;;;;;;10387599;28;19941;-69
2022/11/18 22:10:07;;;;;;;;;;;17.90;72.80;;;;;;10388842;28;19933;-70
2022/11/18 22:15:12;;;;;;;;;;;17.90;72.80;;;;;;10388433;28;20575;-69
2022/11/18 22:20:13;;;;;;;;;;;17.90;72.80;;;;;;10388405;28;20017;-69
2022/11/18 22:25:15;;;;;;;;;;;17.90;72.70;;;;;;10387358;28;20039;-70
2022/11/18 22:30:17;;;;;;;;;;;17.90;72.60;;;;;;10387045;28;19933;-70
2022/11/18 22:35:19;;;;;;;;;;;17.80;72.30;;;;;;10386545;28;19938;-71
2022/11/18 22:40:21;;;;;;;;;;;17.80;72.70;;;;;;10387159;28;20060;-70
2022/11/18 22:45:22;;;;;;;;;;;17.80;72.70;;;;;;10386595;28;20036;-71
2022/11/18 22:50:24;;;;;;;;;;;17.80;73.40;;;;;;10387168;28;20396;-70
2022/11/18 22:55:26;;;;;;;;;;;17.80;73.70;;;;;;10385025;28;19977;-69
2022/11/18 23:00:28;;;;;;;;;;;17.80;73.90;;;;;;10385846;28;20020;-69
2022/11/18 23:05:29;;;;;;;;;;;17.80;73.90;;;;;;10385156;28;20048;-70
2022/11/18 23:10:31;;;;;;;;;;;17.80;73.50;;;;;;10386085;28;19957;-69
2022/11/18 23:15:33;;;;;;;;;;;17.80;73.00;;;;;;10386153;28;20028;-69
2022/11/18 23:20:34;;;;;;;;;;;17.70;72.60;;;;;;10385732;28;20459;-69
2022/11/18 23:25:36;;;;;;;;;;;17.70;72.50;;;;;;10384385;28;19934;-69
2022/11/18 23:30:38;;;;;;;;;;;17.60;72.50;;;;;;10386278;28;20023;-69
2022/11/18 23:35:40;;;;;;;;;;;17.60;72.50;;;;;;10385153;28;20360;-69
2022/11/18 23:40:42;;;;;;;;;;;17.50;72.40;;;;;;10385142;28;19952;-69
2022/11/18 23:45:44;;;;;;;;;;;17.50;72.50;;;;;;10385239;28;20426;-69
2022/11/18 23:50:55;;;;;;;;;;;17.50;72.30;;;;;;10385081;28;20348;-69
2022/11/18 23:55:58;;;;;;;;;;;17.50;72.20;;;;;;10383986;28;20072;-69
